sensor_id;sensor_type;location;lat;lon;timestamp;temperature;humidity
62862;DHT22;48953;53.110;5.592;2022-09-03T00:01:49;16.60;99.90
62862;DHT22;48953;53.110;5.592;2022-09-03T00:07:29;16.50;99.90
62862;DHT22;48953;53.110;5.592;2022-09-03T00:10:04;16.50;99.90
62862;DHT22;48953;53.110;5.592;2022-09-03T00:12:36;16.50;99.90
62862;DHT22;48953;53.110;5.592;2022-09-03T00:15:20;16.30;99.90
62862;DHT22;48953;53.110;5.592;2022-09-03T00:17:58;16.30;99.90
62862;DHT22;48953;53.110;5.592;2022-09-03T00:20:32;16.30;99.90
62862;DHT22;48953;53.110;5.592;2022-09-03T00:23:20;16.10;99.90
62862;DHT22;48953;53.110;5.592;2022-09-03T00:25:55;16.00;99.90
62862;DHT22;48953;53.110;5.592;2022-09-03T00:28:27;15.90;99.90
62862;DHT22;48953;53.110;5.592;2022-09-03T00:31:10;15.80;99.90
62862;DHT22;48953;53.110;5.592;2022-09-03T00:33:40;15.80;99.90
62862;DHT22;48953;53.110;5.592;2022-09-03T00:36:27;15.70;99.90
62862;DHT22;48953;53.110;5.592;2022-09-03T00:38:57;15.50;99.90
62862;DHT22;48953;53.110;5.592;2022-09-03T00:41:36;15.50;99.90
62862;DHT22;48953;53.110;5.592;2022-09-03T00:54:58;15.00;99.90
62862;DHT22;48953;53.110;5.592;2022-09-03T00:57:29;14.90;99.90
62862;DHT22;48953;53.110;5.592;2022-09-03T01:00:08;14.90;99.90
62862;DHT22;48953;53.110;5.592;2022-09-03T01:05:10;14.80;99.90
62862;DHT22;48953;53.110;5.592;2022-09-03T01:08:24;14.80;99.90
62862;DHT22;48953;53.110;5.592;2022-09-03T01:10:39;14.60;99.90
62862;DHT22;48953;53.110;5.592;2022-09-03T01:13:22;14.70;99.90
62862;DHT22;48953;53.110;5.592;2022-09-03T01:30:11;14.40;99.90
62862;DHT22;48953;53.110;5.592;2022-09-03T01:35:46;14.60;99.90
62862;DHT22;48953;53.110;5.592;2022-09-03T01:38:32;14.60;99.90
62862;DHT22;48953;53.110;5.592;2022-09-03T01:46:56;14.80;99.90
62862;DHT22;48953;53.110;5.592;2022-09-03T01:49:43;14.80;99.90
62862;DHT22;48953;53.110;5.592;2022-09-03T01:52:36;14.90;99.90
62862;DHT22;48953;53.110;5.592;2022-09-03T01:57:55;15.00;99.90
62862;DHT22;48953;53.110;5.592;2022-09-03T02:00:22;15.10;99.90
62862;DHT22;48953;53.110;5.592;2022-09-03T02:02:50;15.00;99.90
62862;DHT22;48953;53.110;5.592;2022-09-03T02:05:24;15.20;99.90
62862;DHT22;48953;53.110;5.592;2022-09-03T02:08:04;15.20;99.90
62862;DHT22;48953;53.110;5.592;2022-09-03T02:10:46;15.10;99.90
62862;DHT22;48953;53.110;5.592;2022-09-03T02:13:26;15.30;99.90
62862;DHT22;48953;53.110;5.592;2022-09-03T02:15:58;15.30;99.90
62862;DHT22;48953;53.110;5.592;2022-09-03T02:18:28;15.20;99.90
62862;DHT22;48953;53.110;5.592;2022-09-03T02:20:56;15.20;99.90
62862;DHT22;48953;53.110;5.592;2022-09-03T02:23:26;15.20;99.90
62862;DHT22;48953;53.110;5.592;2022-09-03T02:25:56;15.20;99.90
62862;DHT22;48953;53.110;5.592;2022-09-03T02:28:25;15.30;99.90
62862;DHT22;48953;53.110;5.592;2022-09-03T02:30:51;15.30;99.90
62862;DHT22;48953;53.110;5.592;2022-09-03T02:33:17;15.20;99.90
62862;DHT22;48953;53.110;5.592;2022-09-03T02:35:43;15.30;99.90
62862;DHT22;48953;53.110;5.592;2022-09-03T02:38:20;15.30;99.90
62862;DHT22;48953;53.110;5.592;2022-09-03T02:40:46;15.20;99.90
62862;DHT22;48953;53.110;5.592;2022-09-03T02:43:33;15.20;99.90
62862;DHT22;48953;53.110;5.592;2022-09-03T02:46:04;15.20;99.90
62862;DHT22;48953;53.110;5.592;2022-09-03T02:48:31;15.20;99.90
62862;DHT22;48953;53.110;5.592;2022-09-03T02:50:57;15.20;99.90
62862;DHT22;48953;53.110;5.592;2022-09-03T02:53:23;15.20;99.90
62862;DHT22;48953;53.110;5.592;2022-09-03T02:55:49;15.20;99.90
62862;DHT22;48953;53.110;5.592;2022-09-03T02:58:14;15.20;99.90
62862;DHT22;48953;53.110;5.592;2022-09-03T03:00:40;15.20;99.90
62862;DHT22;48953;53.110;5.592;2022-09-03T03:03:06;15.10;99.90
62862;DHT22;48953;53.110;5.592;2022-09-03T03:05:43;15.20;99.90
62862;DHT22;48953;53.110;5.592;2022-09-03T03:08:09;15.20;99.90
62862;DHT22;48953;53.110;5.592;2022-09-03T03:10:42;15.20;99.90
62862;DHT22;48953;53.110;5.592;2022-09-03T03:13:09;15.10;99.90
62862;DHT22;48953;53.110;5.592;2022-09-03T03:15:35;15.10;99.90
62862;DHT22;48953;53.110;5.592;2022-09-03T03:18:00;15.20;99.90
62862;DHT22;48953;53.110;5.592;2022-09-03T03:20:26;15.10;99.90
62862;DHT22;48953;53.110;5.592;2022-09-03T03:22:51;15.10;99.90
62862;DHT22;48953;53.110;5.592;2022-09-03T03:25:17;15.20;99.90
62862;DHT22;48953;53.110;5.592;2022-09-03T03:27:43;15.10;99.90
62862;DHT22;48953;53.110;5.592;2022-09-03T03:30:10;15.10;99.90
62862;DHT22;48953;53.110;5.592;2022-09-03T03:32:36;15.10;99.90
62862;DHT22;48953;53.110;5.592;2022-09-03T03:35:03;15.20;99.90
62862;DHT22;48953;53.110;5.592;2022-09-03T03:37:30;15.10;99.90
62862;DHT22;48953;53.110;5.592;2022-09-03T03:39:55;15.20;99.90
62862;DHT22;48953;53.110;5.592;2022-09-03T03:42:21;15.20;99.90
62862;DHT22;48953;53.110;5.592;2022-09-03T03:44:46;15.30;99.90
62862;DHT22;48953;53.110;5.592;2022-09-03T03:47:12;15.20;99.90
62862;DHT22;48953;53.110;5.592;2022-09-03T03:49:37;15.20;99.90
62862;DHT22;48953;53.110;5.592;2022-09-03T03:52:03;15.30;99.90
62862;DHT22;48953;53.110;5.592;2022-09-03T03:54:29;15.30;99.90
62862;DHT22;48953;53.110;5.592;2022-09-03T03:56:55;15.30;99.90
62862;DHT22;48953;53.110;5.592;2022-09-03T03:59:21;15.30;99.90
62862;DHT22;48953;53.110;5.592;2022-09-03T04:01:47;15.30;99.90
62862;DHT22;48953;53.110;5.592;2022-09-03T04:04:15;15.30;99.90
62862;DHT22;48953;53.110;5.592;2022-09-03T04:06:42;15.30;99.90
62862;DHT22;48953;53.110;5.592;2022-09-03T04:09:07;15.30;99.90
62862;DHT22;48953;53.110;5.592;2022-09-03T04:11:33;15.30;99.90
62862;DHT22;48953;53.110;5.592;2022-09-03T04:13:58;15.20;99.90
62862;DHT22;48953;53.110;5.592;2022-09-03T04:16:26;15.20;99.90
62862;DHT22;48953;53.110;5.592;2022-09-03T04:18:52;15.20;99.90
62862;DHT22;48953;53.110;5.592;2022-09-03T04:21:24;15.20;99.90
62862;DHT22;48953;53.110;5.592;2022-09-03T04:23:52;15.10;99.90
62862;DHT22;48953;53.110;5.592;2022-09-03T04:26:20;15.10;99.90
62862;DHT22;48953;53.110;5.592;2022-09-03T04:28:46;15.00;99.90
62862;DHT22;48953;53.110;5.592;2022-09-03T04:31:13;15.00;99.90
62862;DHT22;48953;53.110;5.592;2022-09-03T04:33:39;15.00;99.90
62862;DHT22;48953;53.110;5.592;2022-09-03T04:38:34;14.90;99.90
62862;DHT22;48953;53.110;5.592;2022-09-03T04:41:00;14.90;99.90
62862;DHT22;48953;53.110;5.592;2022-09-03T04:43:27;14.90;99.90
62862;DHT22;48953;53.110;5.592;2022-09-03T04:45:57;15.00;99.90
62862;DHT22;48953;53.110;5.592;2022-09-03T04:48:23;14.90;99.90
62862;DHT22;48953;53.110;5.592;2022-09-03T04:50:48;14.80;99.90
62862;DHT22;48953;53.110;5.592;2022-09-03T04:53:14;14.80;99.90
62862;DHT22;48953;53.110;5.592;2022-09-03T04:55:39;14.80;99.90
62862;DHT22;48953;53.110;5.592;2022-09-03T04:58:05;14.80;99.90
62862;DHT22;48953;53.110;5.592;2022-09-03T05:00:35;14.70;99.90
62862;DHT22;48953;53.110;5.592;2022-09-03T05:03:00;14.70;99.90
62862;DHT22;48953;53.110;5.592;2022-09-03T05:05:29;14.70;99.90
62862;DHT22;48953;53.110;5.592;2022-09-03T05:07:57;14.60;99.90
62862;DHT22;48953;53.110;5.592;2022-09-03T05:10:22;14.60;99.90
62862;DHT22;48953;53.110;5.592;2022-09-03T05:12:58;14.60;99.90
62862;DHT22;48953;53.110;5.592;2022-09-03T05:15:23;14.60;99.90
62862;DHT22;48953;53.110;5.592;2022-09-03T05:17:49;14.60;99.90
62862;DHT22;48953;53.110;5.592;2022-09-03T05:20:18;14.50;99.90
62862;DHT22;48953;53.110;5.592;2022-09-03T05:22:44;14.60;99.90
62862;DHT22;48953;53.110;5.592;2022-09-03T05:25:09;14.60;99.90
62862;DHT22;48953;53.110;5.592;2022-09-03T05:27:35;14.60;99.90
62862;DHT22;48953;53.110;5.592;2022-09-03T05:30:00;14.60;99.90
62862;DHT22;48953;53.110;5.592;2022-09-03T05:32:29;14.50;99.90
62862;DHT22;48953;53.110;5.592;2022-09-03T05:34:55;14.60;99.90
62862;DHT22;48953;53.110;5.592;2022-09-03T05:37:20;14.60;99.90
62862;DHT22;48953;53.110;5.592;2022-09-03T05:39:47;14.60;99.90
62862;DHT22;48953;53.110;5.592;2022-09-03T05:42:13;14.60;99.90
62862;DHT22;48953;53.110;5.592;2022-09-03T05:44:39;14.70;99.90
62862;DHT22;48953;53.110;5.592;2022-09-03T05:47:05;14.70;99.90
62862;DHT22;48953;53.110;5.592;2022-09-03T05:49:30;14.80;99.90
62862;DHT22;48953;53.110;5.592;2022-09-03T05:51:56;14.80;99.90
62862;DHT22;48953;53.110;5.592;2022-09-03T05:54:22;14.80;99.90
62862;DHT22;48953;53.110;5.592;2022-09-03T05:56:47;14.80;99.90
62862;DHT22;48953;53.110;5.592;2022-09-03T05:59:14;14.80;99.90
62862;DHT22;48953;53.110;5.592;2022-09-03T06:01:42;14.80;99.90
62862;DHT22;48953;53.110;5.592;2022-09-03T06:04:10;14.70;99.90
62862;DHT22;48953;53.110;5.592;2022-09-03T06:06:38;14.80;99.90
62862;DHT22;48953;53.110;5.592;2022-09-03T06:09:18;14.80;99.90
62862;DHT22;48953;53.110;5.592;2022-09-03T06:11:44;14.90;99.90
62862;DHT22;48953;53.110;5.592;2022-09-03T06:14:12;14.90;99.90
62862;DHT22;48953;53.110;5.592;2022-09-03T06:16:43;15.00;99.90
62862;DHT22;48953;53.110;5.592;2022-09-03T06:19:10;15.00;99.90
62862;DHT22;48953;53.110;5.592;2022-09-03T06:21:38;15.10;99.90
62862;DHT22;48953;53.110;5.592;2022-09-03T06:24:11;15.00;99.90
62862;DHT22;48953;53.110;5.592;2022-09-03T06:26:37;15.20;99.90
62862;DHT22;48953;53.110;5.592;2022-09-03T06:29:03;15.20;99.90
62862;DHT22;48953;53.110;5.592;2022-09-03T06:31:29;15.30;99.90
62862;DHT22;48953;53.110;5.592;2022-09-03T06:33:55;15.40;99.90
62862;DHT22;48953;53.110;5.592;2022-09-03T06:36:22;15.40;99.90
62862;DHT22;48953;53.110;5.592;2022-09-03T06:38:54;15.50;99.90
62862;DHT22;48953;53.110;5.592;2022-09-03T06:41:22;15.50;99.90
62862;DHT22;48953;53.110;5.592;2022-09-03T06:43:55;15.60;99.90
62862;DHT22;48953;53.110;5.592;2022-09-03T06:46:23;15.70;99.90
62862;DHT22;48953;53.110;5.592;2022-09-03T06:48:50;17.00;99.90
62862;DHT22;48953;53.110;5.592;2022-09-03T06:51:21;20.90;99.90
62862;DHT22;48953;53.110;5.592;2022-09-03T06:53:49;22.50;99.90
62862;DHT22;48953;53.110;5.592;2022-09-03T06:56:17;22.80;99.90
62862;DHT22;48953;53.110;5.592;2022-09-03T06:58:45;23.80;99.90
62862;DHT22;48953;53.110;5.592;2022-09-03T07:01:16;24.70;99.90
62862;DHT22;48953;53.110;5.592;2022-09-03T07:03:45;24.00;99.90
62862;DHT22;48953;53.110;5.592;2022-09-03T07:06:12;24.70;99.90
62862;DHT22;48953;53.110;5.592;2022-09-03T07:08:38;24.60;99.90
62862;DHT22;48953;53.110;5.592;2022-09-03T07:11:06;27.40;99.90
62862;DHT22;48953;53.110;5.592;2022-09-03T07:13:43;26.50;99.90
62862;DHT22;48953;53.110;5.592;2022-09-03T07:16:11;26.60;99.90
62862;DHT22;48953;53.110;5.592;2022-09-03T07:18:38;27.20;99.90
62862;DHT22;48953;53.110;5.592;2022-09-03T07:21:06;28.30;99.80
62862;DHT22;48953;53.110;5.592;2022-09-03T07:23:32;26.10;98.80
62862;DHT22;48953;53.110;5.592;2022-09-03T07:26:00;28.10;98.60
62862;DHT22;48953;53.110;5.592;2022-09-03T07:28:28;28.10;95.90
62862;DHT22;48953;53.110;5.592;2022-09-03T07:31:01;27.80;96.30
62862;DHT22;48953;53.110;5.592;2022-09-03T07:33:28;25.70;95.80
62862;DHT22;48953;53.110;5.592;2022-09-03T07:35:54;27.30;95.30
62862;DHT22;48953;53.110;5.592;2022-09-03T07:38:20;27.90;95.10
62862;DHT22;48953;53.110;5.592;2022-09-03T07:40:47;28.90;94.50
62862;DHT22;48953;53.110;5.592;2022-09-03T07:43:13;29.70;93.60
62862;DHT22;48953;53.110;5.592;2022-09-03T07:45:39;28.10;92.50
62862;DHT22;48953;53.110;5.592;2022-09-03T07:48:04;29.00;92.80
62862;DHT22;48953;53.110;5.592;2022-09-03T07:50:30;27.70;91.50
62862;DHT22;48953;53.110;5.592;2022-09-03T07:53:03;29.60;90.90
62862;DHT22;48953;53.110;5.592;2022-09-03T07:55:28;28.40;89.70
62862;DHT22;48953;53.110;5.592;2022-09-03T07:57:57;30.30;88.70
62862;DHT22;48953;53.110;5.592;2022-09-03T08:00:23;27.70;89.10
62862;DHT22;48953;53.110;5.592;2022-09-03T08:02:51;29.30;87.50
62862;DHT22;48953;53.110;5.592;2022-09-03T08:05:17;28.60;88.50
62862;DHT22;48953;53.110;5.592;2022-09-03T08:07:44;29.50;89.00
62862;DHT22;48953;53.110;5.592;2022-09-03T08:10:10;31.70;85.70
62862;DHT22;48953;53.110;5.592;2022-09-03T08:12:35;31.00;83.20
62862;DHT22;48953;53.110;5.592;2022-09-03T08:15:01;27.80;80.20
62862;DHT22;48953;53.110;5.592;2022-09-03T08:17:27;29.80;83.90
62862;DHT22;48953;53.110;5.592;2022-09-03T08:19:52;30.80;81.70
62862;DHT22;48953;53.110;5.592;2022-09-03T08:22:19;30.00;80.80
62862;DHT22;48953;53.110;5.592;2022-09-03T08:24:46;29.10;78.10
62862;DHT22;48953;53.110;5.592;2022-09-03T08:27:12;31.90;80.40
62862;DHT22;48953;53.110;5.592;2022-09-03T08:29:38;31.10;78.90
62862;DHT22;48953;53.110;5.592;2022-09-03T08:32:04;31.80;76.10
62862;DHT22;48953;53.110;5.592;2022-09-03T08:34:29;32.70;75.00
62862;DHT22;48953;53.110;5.592;2022-09-03T08:36:55;31.40;74.80
62862;DHT22;48953;53.110;5.592;2022-09-03T08:39:20;30.70;73.50
62862;DHT22;48953;53.110;5.592;2022-09-03T08:44:25;30.10;72.60
62862;DHT22;48953;53.110;5.592;2022-09-03T08:52:08;30.40;70.90
62862;DHT22;48953;53.110;5.592;2022-09-03T08:54:37;31.40;72.30
62862;DHT22;48953;53.110;5.592;2022-09-03T08:57:05;29.70;69.80
62862;DHT22;48953;53.110;5.592;2022-09-03T08:59:32;29.50;70.50
62862;DHT22;48953;53.110;5.592;2022-09-03T09:02:21;29.30;70.40
62862;DHT22;48953;53.110;5.592;2022-09-03T09:05:11;31.40;71.70
62862;DHT22;48953;53.110;5.592;2022-09-03T09:07:49;32.80;69.50
62862;DHT22;48953;53.110;5.592;2022-09-03T09:13:32;34.20;65.60
62862;DHT22;48953;53.110;5.592;2022-09-03T09:16:02;32.00;64.50
62862;DHT22;48953;53.110;5.592;2022-09-03T09:23:51;33.70;62.20
62862;DHT22;48953;53.110;5.592;2022-09-03T09:26:20;32.40;60.40
62862;DHT22;48953;53.110;5.592;2022-09-03T09:28:52;32.50;61.70
62862;DHT22;48953;53.110;5.592;2022-09-03T09:31:19;32.40;60.60
62862;DHT22;48953;53.110;5.592;2022-09-03T09:33:45;32.50;60.50
62862;DHT22;48953;53.110;5.592;2022-09-03T09:36:14;33.20;60.10
62862;DHT22;48953;53.110;5.592;2022-09-03T09:38:42;33.60;58.50
62862;DHT22;48953;53.110;5.592;2022-09-03T09:41:12;33.80;58.60
62862;DHT22;48953;53.110;5.592;2022-09-03T09:43:39;30.40;56.60
62862;DHT22;48953;53.110;5.592;2022-09-03T09:46:09;33.40;62.80
62862;DHT22;48953;53.110;5.592;2022-09-03T09:48:41;35.50;57.10
62862;DHT22;48953;53.110;5.592;2022-09-03T09:51:19;32.70;56.00
62862;DHT22;48953;53.110;5.592;2022-09-03T09:53:45;32.10;55.40
62862;DHT22;48953;53.110;5.592;2022-09-03T09:56:24;34.10;56.50
62862;DHT22;48953;53.110;5.592;2022-09-03T09:59:04;33.80;56.00
62862;DHT22;48953;53.110;5.592;2022-09-03T10:01:30;30.90;54.70
62862;DHT22;48953;53.110;5.592;2022-09-03T10:03:58;33.10;56.70
62862;DHT22;48953;53.110;5.592;2022-09-03T10:06:26;32.40;53.70
62862;DHT22;48953;53.110;5.592;2022-09-03T10:09:19;33.10;54.20
62862;DHT22;48953;53.110;5.592;2022-09-03T10:12:20;31.50;53.10
62862;DHT22;48953;53.110;5.592;2022-09-03T10:14:50;33.50;54.60
62862;DHT22;48953;53.110;5.592;2022-09-03T10:17:20;31.30;53.20
62862;DHT22;48953;53.110;5.592;2022-09-03T10:28:21;33.40;50.90
62862;DHT22;48953;53.110;5.592;2022-09-03T10:33:32;33.10;51.50
62862;DHT22;48953;53.110;5.592;2022-09-03T10:38:36;33.30;49.00
62862;DHT22;48953;53.110;5.592;2022-09-03T10:41:24;34.20;51.70
62862;DHT22;48953;53.110;5.592;2022-09-03T10:44:36;31.20;48.20
62862;DHT22;48953;53.110;5.592;2022-09-03T10:47:27;31.90;50.80
62862;DHT22;48953;53.110;5.592;2022-09-03T10:50:20;32.60;50.70
62862;DHT22;48953;53.110;5.592;2022-09-03T10:58:28;32.00;52.20
62862;DHT22;48953;53.110;5.592;2022-09-03T11:01:05;29.30;52.00
62862;DHT22;48953;53.110;5.592;2022-09-03T11:03:47;29.10;53.90
62862;DHT22;48953;53.110;5.592;2022-09-03T11:06:15;28.00;54.20
62862;DHT22;48953;53.110;5.592;2022-09-03T11:11:30;27.20;54.60
62862;DHT22;48953;53.110;5.592;2022-09-03T11:14:08;26.70;54.90
62862;DHT22;48953;53.110;5.592;2022-09-03T11:16:42;26.00;55.40
62862;DHT22;48953;53.110;5.592;2022-09-03T11:19:13;25.90;55.40
62862;DHT22;48953;53.110;5.592;2022-09-03T11:21:41;26.00;55.70
62862;DHT22;48953;53.110;5.592;2022-09-03T11:24:23;26.40;56.20
62862;DHT22;48953;53.110;5.592;2022-09-03T11:30:00;26.10;56.00
62862;DHT22;48953;53.110;5.592;2022-09-03T11:37:59;25.90;56.70
62862;DHT22;48953;53.110;5.592;2022-09-03T11:40:37;26.30;58.10
62862;DHT22;48953;53.110;5.592;2022-09-03T11:46:51;26.80;57.80
62862;DHT22;48953;53.110;5.592;2022-09-03T11:48:47;26.40;57.30
62862;DHT22;48953;53.110;5.592;2022-09-03T11:51:35;26.00;56.80
62862;DHT22;48953;53.110;5.592;2022-09-03T11:56:39;26.30;56.30
62862;DHT22;48953;53.110;5.592;2022-09-03T11:59:16;26.50;56.40
62862;DHT22;48953;53.110;5.592;2022-09-03T12:13:03;26.40;55.60
62862;DHT22;48953;53.110;5.592;2022-09-03T12:15:36;26.00;54.10
62862;DHT22;48953;53.110;5.592;2022-09-03T12:18:11;26.60;54.90
62862;DHT22;48953;53.110;5.592;2022-09-03T12:21:00;26.10;53.70
62862;DHT22;48953;53.110;5.592;2022-09-03T12:23:33;26.40;53.90
62862;DHT22;48953;53.110;5.592;2022-09-03T12:26:03;27.20;54.00
62862;DHT22;48953;53.110;5.592;2022-09-03T12:28:30;26.70;53.20
62862;DHT22;48953;53.110;5.592;2022-09-03T12:31:15;26.30;53.00
62862;DHT22;48953;53.110;5.592;2022-09-03T12:33:54;26.50;53.20
62862;DHT22;48953;53.110;5.592;2022-09-03T12:36:21;26.70;52.90
62862;DHT22;48953;53.110;5.592;2022-09-03T12:38:47;26.90;52.10
62862;DHT22;48953;53.110;5.592;2022-09-03T12:41:21;26.80;52.10
62862;DHT22;48953;53.110;5.592;2022-09-03T12:43:53;26.80;52.20
62862;DHT22;48953;53.110;5.592;2022-09-03T12:46:22;26.50;51.40
62862;DHT22;48953;53.110;5.592;2022-09-03T12:49:00;26.30;51.60
62862;DHT22;48953;53.110;5.592;2022-09-03T12:51:35;26.80;51.70
62862;DHT22;48953;53.110;5.592;2022-09-03T12:54:02;26.90;51.70
62862;DHT22;48953;53.110;5.592;2022-09-03T12:56:30;26.60;51.70
62862;DHT22;48953;53.110;5.592;2022-09-03T12:59:05;27.10;52.00
62862;DHT22;48953;53.110;5.592;2022-09-03T13:01:47;26.70;50.90
62862;DHT22;48953;53.110;5.592;2022-09-03T13:04:18;26.40;50.70
62862;DHT22;48953;53.110;5.592;2022-09-03T13:07:20;26.50;50.80
62862;DHT22;48953;53.110;5.592;2022-09-03T13:09:40;26.50;51.00
62862;DHT22;48953;53.110;5.592;2022-09-03T13:12:18;26.70;51.00
62862;DHT22;48953;53.110;5.592;2022-09-03T13:14:46;27.00;51.00
62862;DHT22;48953;53.110;5.592;2022-09-03T13:17:23;26.70;50.40
62862;DHT22;48953;53.110;5.592;2022-09-03T13:19:56;27.10;50.40
62862;DHT22;48953;53.110;5.592;2022-09-03T13:25:45;27.10;50.80
62862;DHT22;48953;53.110;5.592;2022-09-03T13:28:29;26.80;50.30
62862;DHT22;48953;53.110;5.592;2022-09-03T13:31:17;27.30;51.20
62862;DHT22;48953;53.110;5.592;2022-09-03T13:34:08;27.10;50.50
62862;DHT22;48953;53.110;5.592;2022-09-03T13:40:12;26.90;50.80
62862;DHT22;48953;53.110;5.592;2022-09-03T13:42:48;27.00;51.60
62862;DHT22;48953;53.110;5.592;2022-09-03T13:45:38;26.60;50.50
62862;DHT22;48953;53.110;5.592;2022-09-03T13:48:27;26.70;50.00
62862;DHT22;48953;53.110;5.592;2022-09-03T13:51:22;26.80;50.10
62862;DHT22;48953;53.110;5.592;2022-09-03T13:54:16;26.90;50.40
62862;DHT22;48953;53.110;5.592;2022-09-03T13:56:59;26.60;50.30
62862;DHT22;48953;53.110;5.592;2022-09-03T14:04:57;26.90;50.60
62862;DHT22;48953;53.110;5.592;2022-09-03T14:07:41;27.30;50.90
62862;DHT22;48953;53.110;5.592;2022-09-03T14:10:30;27.30;50.30
62862;DHT22;48953;53.110;5.592;2022-09-03T14:19:02;26.90;50.20
62862;DHT22;48953;53.110;5.592;2022-09-03T14:22:06;26.80;49.10
62862;DHT22;48953;53.110;5.592;2022-09-03T14:24:43;26.40;49.50
62862;DHT22;48953;53.110;5.592;2022-09-03T14:27:10;26.50;49.90
62862;DHT22;48953;53.110;5.592;2022-09-03T14:29:36;26.80;50.20
62862;DHT22;48953;53.110;5.592;2022-09-03T14:32:31;27.00;51.30
62862;DHT22;48953;53.110;5.592;2022-09-03T14:41:02;26.70;50.30
62862;DHT22;48953;53.110;5.592;2022-09-03T14:46:22;26.80;50.30
62862;DHT22;48953;53.110;5.592;2022-09-03T14:57:35;26.30;49.70
62862;DHT22;48953;53.110;5.592;2022-09-03T15:00:07;26.40;50.20
62862;DHT22;48953;53.110;5.592;2022-09-03T15:10:26;26.00;50.90
62862;DHT22;48953;53.110;5.592;2022-09-03T15:13:00;26.10;51.60
62862;DHT22;48953;53.110;5.592;2022-09-03T15:21:40;25.80;51.00
62862;DHT22;48953;53.110;5.592;2022-09-03T15:24:48;25.80;51.70
62862;DHT22;48953;53.110;5.592;2022-09-03T15:27:37;25.80;51.60
62862;DHT22;48953;53.110;5.592;2022-09-03T15:30:16;25.80;51.60
62862;DHT22;48953;53.110;5.592;2022-09-03T15:32:47;25.60;51.10
62862;DHT22;48953;53.110;5.592;2022-09-03T15:38:22;25.60;52.30
62862;DHT22;48953;53.110;5.592;2022-09-03T15:40:51;25.50;51.50
62862;DHT22;48953;53.110;5.592;2022-09-03T15:43:28;25.50;51.60
62862;DHT22;48953;53.110;5.592;2022-09-03T15:45:58;25.30;51.80
62862;DHT22;48953;53.110;5.592;2022-09-03T15:51:16;25.30;51.80
62862;DHT22;48953;53.110;5.592;2022-09-03T15:54:00;25.20;52.80
62862;DHT22;48953;53.110;5.592;2022-09-03T15:56:40;25.20;52.10
62862;DHT22;48953;53.110;5.592;2022-09-03T15:59:20;25.10;52.40
62862;DHT22;48953;53.110;5.592;2022-09-03T16:02:00;25.10;53.70
62862;DHT22;48953;53.110;5.592;2022-09-03T16:07:45;24.90;53.70
62862;DHT22;48953;53.110;5.592;2022-09-03T16:10:17;24.80;54.00
62862;DHT22;48953;53.110;5.592;2022-09-03T16:13:02;24.80;55.10
62862;DHT22;48953;53.110;5.592;2022-09-03T16:15:49;24.70;55.00
62862;DHT22;48953;53.110;5.592;2022-09-03T16:18:25;24.70;55.10
62862;DHT22;48953;53.110;5.592;2022-09-03T16:21:08;24.60;55.10
62862;DHT22;48953;53.110;5.592;2022-09-03T16:23:59;24.60;55.00
62862;DHT22;48953;53.110;5.592;2022-09-03T16:26:35;24.50;55.00
62862;DHT22;48953;53.110;5.592;2022-09-03T16:29:12;24.50;56.00
62862;DHT22;48953;53.110;5.592;2022-09-03T16:32:16;24.40;57.60
62862;DHT22;48953;53.110;5.592;2022-09-03T16:37:50;24.30;61.90
62862;DHT22;48953;53.110;5.592;2022-09-03T16:45:57;24.00;58.40
62862;DHT22;48953;53.110;5.592;2022-09-03T16:48:31;24.00;59.20
62862;DHT22;48953;53.110;5.592;2022-09-03T16:51:15;23.90;59.30
62862;DHT22;48953;53.110;5.592;2022-09-03T16:57:11;23.70;59.90
62862;DHT22;48953;53.110;5.592;2022-09-03T17:00:04;23.50;61.20
62862;DHT22;48953;53.110;5.592;2022-09-03T17:06:06;23.10;63.80
62862;DHT22;48953;53.110;5.592;2022-09-03T17:14:32;22.70;65.70
62862;DHT22;48953;53.110;5.592;2022-09-03T17:34:03;21.40;74.60
62862;DHT22;48953;53.110;5.592;2022-09-03T17:36:31;21.30;76.90
62862;DHT22;48953;53.110;5.592;2022-09-03T17:39:34;21.20;79.50
62862;DHT22;48953;53.110;5.592;2022-09-03T17:42:15;21.00;80.80
62862;DHT22;48953;53.110;5.592;2022-09-03T17:50:48;20.60;85.60
62862;DHT22;48953;53.110;5.592;2022-09-03T17:53:23;20.50;88.10
62862;DHT22;48953;53.110;5.592;2022-09-03T17:56:10;20.40;89.50
62862;DHT22;48953;53.110;5.592;2022-09-03T17:58:50;20.20;90.60
62862;DHT22;48953;53.110;5.592;2022-09-03T18:01:22;20.10;91.30
62862;DHT22;48953;53.110;5.592;2022-09-03T18:04:40;19.90;91.70
62862;DHT22;48953;53.110;5.592;2022-09-03T18:15:36;19.40;94.60
62862;DHT22;48953;53.110;5.592;2022-09-03T18:18:08;19.30;95.20
62862;DHT22;48953;53.110;5.592;2022-09-03T18:20:45;19.20;96.20
62862;DHT22;48953;53.110;5.592;2022-09-03T18:26:35;19.00;96.90
62862;DHT22;48953;53.110;5.592;2022-09-03T18:32:42;18.70;97.70
62862;DHT22;48953;53.110;5.592;2022-09-03T18:35:29;18.60;98.40
62862;DHT22;48953;53.110;5.592;2022-09-03T18:38:16;18.40;99.20
62862;DHT22;48953;53.110;5.592;2022-09-03T18:53:44;17.70;99.90
62862;DHT22;48953;53.110;5.592;2022-09-03T19:06:22;17.50;99.90
62862;DHT22;48953;53.110;5.592;2022-09-03T19:09:26;17.50;99.90
62862;DHT22;48953;53.110;5.592;2022-09-03T19:19:16;17.10;99.90
62862;DHT22;48953;53.110;5.592;2022-09-03T19:22:14;17.00;99.90
62862;DHT22;48953;53.110;5.592;2022-09-03T19:25:04;17.00;99.90
62862;DHT22;48953;53.110;5.592;2022-09-03T19:28:25;16.90;99.90
62862;DHT22;48953;53.110;5.592;2022-09-03T19:31:42;16.90;99.90
62862;DHT22;48953;53.110;5.592;2022-09-03T19:46:59;16.60;99.90
62862;DHT22;48953;53.110;5.592;2022-09-03T19:49:59;16.40;99.90
62862;DHT22;48953;53.110;5.592;2022-09-03T19:53:01;16.30;99.90
62862;DHT22;48953;53.110;5.592;2022-09-03T19:55:53;16.20;99.90
62862;DHT22;48953;53.110;5.592;2022-09-03T19:58:48;16.20;99.90
62862;DHT22;48953;53.110;5.592;2022-09-03T20:01:34;16.10;99.90
62862;DHT22;48953;53.110;5.592;2022-09-03T20:04:29;16.10;99.90
62862;DHT22;48953;53.110;5.592;2022-09-03T20:07:14;16.00;99.90
62862;DHT22;48953;53.110;5.592;2022-09-03T20:10:01;16.00;99.90
62862;DHT22;48953;53.110;5.592;2022-09-03T20:15:31;15.90;99.90
62862;DHT22;48953;53.110;5.592;2022-09-03T20:18:11;15.80;99.90
62862;DHT22;48953;53.110;5.592;2022-09-03T20:20:52;15.80;99.90
62862;DHT22;48953;53.110;5.592;2022-09-03T20:23:30;15.80;99.90
62862;DHT22;48953;53.110;5.592;2022-09-03T20:32:07;15.70;99.90
62862;DHT22;48953;53.110;5.592;2022-09-03T20:34:55;15.50;99.90
62862;DHT22;48953;53.110;5.592;2022-09-03T20:43:18;15.50;99.90
62862;DHT22;48953;53.110;5.592;2022-09-03T20:51:29;15.40;99.90
62862;DHT22;48953;53.110;5.592;2022-09-03T20:54:21;15.50;99.90
62862;DHT22;48953;53.110;5.592;2022-09-03T20:59:32;15.50;99.90
62862;DHT22;48953;53.110;5.592;2022-09-03T21:02:26;15.40;99.90
62862;DHT22;48953;53.110;5.592;2022-09-03T21:05:31;15.50;99.90